Aérodrome :
LOGIN :

S'inscrire | Disclaimer

   EN    FR    IT 

 










Légende :    VFR   VFR Marginal   IFR   IFR Intensif   IFR Très Intensif
Visi : 
Plafond : 
>= 8 km
>= 3000ft
5 à 8 km
1000 à 3000 ft
1500m à 5 km
500 à 1000 ft
800 à 1500m
200 à 500 ft
< 800m
< 200 ft
Symboles :   Orages  Brouillard  Fortes neiges  Fortes précipitations  Vent > 20 kt
SIGMETs :   Divers  Orages  Givrage  Turbulence  Onde Orograph.  Cendres Volcan.







- Altitude de l'aérodrome : 1674 ft
- Code IATA : BRN


LSZB - Bern Belp

DERNIER METAR :
  • 230620Z 16003KT 120V180 9999 FEW005 SCT030 BKN040 13/13 Q1018 NOSIG

METARs EXPIRÉS :
  • 230550Z VRB02KT 9999 FEW002 SCT031 BKN038 12/12 Q1018 NOSIG
  • 230520Z 09003KT 9999 -DZ FEW002 SCT010 BKN050 12/12 Q1017 NOSIG
  • 230450Z 00000KT 9999 SCT009 BKN120 12/12 Q1017 NOSIG
  • 230420Z 19002KT 9999 FEW007 BKN120 12/12 Q1017 NOSIG

TAF TAF LSZB
Valide du 23 à 06h jusqu'au 23 à 15h UTC


230525Z 2306/2315 VRB03KT 9999 FEW005 SCT010 BKN050
ATIS : +41 22 417 40 76
Pas de NOTAMs connus pour ce terrain.



MET'MAP, la Météo Aéronautique d'un coup d'oeil ! - Copyright ORBIFLY Décembre 2007 - Disclaimer

ORBIFLY MET'MAP TEAM :

Programmation & Développement : Alexandra Zaïnal
Conception & Développement : Baudouin d'Aumeries
Co-Programmation & Développement : Marc-Olivier Méhu
Soutien technique & logistique : Manuel Goepfert

Contact : metmap@orbifly.com




SOURCES & CREDITS :

   NOAA